createdAt,value
2022-08-25T00:02:11.213Z,18.50
2022-08-25T00:07:12.844Z,18.72
2022-08-25T00:12:20.301Z,18.43
2022-08-25T00:17:21.898Z,18.30
2022-08-25T00:22:23.578Z,18.44
2022-08-25T00:27:25.989Z,18.48
2022-08-25T00:32:27.663Z,18.21
2022-08-25T00:37:29.335Z,18.33
2022-08-25T00:42:31.679Z,18.14
2022-08-25T00:47:33.399Z,18.17
2022-08-25T00:52:43.067Z,18.22
2022-08-25T00:58:14.084Z,18.08
2022-08-25T01:03:19.108Z,18.18
2022-08-25T01:08:25.576Z,17.92
2022-08-25T01:13:47.119Z,17.82
2022-08-25T01:18:51.883Z,17.81
2022-08-25T01:23:58.140Z,17.73
2022-08-25T01:29:20.305Z,17.78
2022-08-25T01:34:22.281Z,17.81
2022-08-25T01:39:25.183Z,17.96
2022-08-25T01:44:26.807Z,17.94
2022-08-25T01:49:28.753Z,17.69
2022-08-25T01:54:30.350Z,17.73
2022-08-25T01:59:32.112Z,17.99
2022-08-25T02:04:34.387Z,17.93
2022-08-25T02:09:37.651Z,17.79
2022-08-25T02:14:39.293Z,17.61
2022-08-25T02:19:43.228Z,17.69
2022-08-25T02:24:44.948Z,17.71
2022-08-25T02:29:47.318Z,17.94
2022-08-25T02:34:48.957Z,17.91
2022-08-25T02:39:50.576Z,17.73
2022-08-25T02:44:52.646Z,17.67
2022-08-25T02:49:54.796Z,17.74
2022-08-25T02:54:56.439Z,17.79
2022-08-25T02:59:58.990Z,18.04
2022-08-25T03:05:00.857Z,17.86
2022-08-25T03:10:08.919Z,17.91
2022-08-25T03:15:12.824Z,17.82
2022-08-25T03:20:15.823Z,17.71
2022-08-25T03:25:37.315Z,17.62
2022-08-25T03:30:38.958Z,17.53
2022-08-25T03:35:40.787Z,17.59
2022-08-25T03:40:42.512Z,17.67
2022-08-25T03:45:46.464Z,17.74
2022-08-25T03:50:51.959Z,17.91
2022-08-25T03:55:53.869Z,17.58
2022-08-25T04:00:56.810Z,17.49
2022-08-25T04:06:02.649Z,17.55
2022-08-25T04:11:14.310Z,17.54
2022-08-25T04:16:25.309Z,17.48
2022-08-25T04:21:27.999Z,17.71
2022-08-25T04:26:36.773Z,17.52
2022-08-25T04:31:41.141Z,17.41
2022-08-25T04:36:42.773Z,17.42
2022-08-25T04:41:44.364Z,17.40
2022-08-25T04:46:46.002Z,17.44
2022-08-25T04:51:47.864Z,17.54
2022-08-25T04:56:54.061Z,17.53
2022-08-25T05:01:57.472Z,17.53
2022-08-25T05:07:00.362Z,17.58
2022-08-25T05:12:02.845Z,17.58
2022-08-25T05:17:04.845Z,17.61
2022-08-25T05:22:06.845Z,17.65
2022-08-25T05:27:08.433Z,17.71
2022-08-25T05:32:10.365Z,17.77
2022-08-25T05:37:12.372Z,17.92
2022-08-25T05:42:14.119Z,18.07
2022-08-25T05:47:15.733Z,18.21
2022-08-25T05:52:20.032Z,18.52
2022-08-25T05:57:21.906Z,18.79
2022-08-25T06:02:42.014Z,18.98
2022-08-25T06:07:48.509Z,19.48
2022-08-25T06:12:50.701Z,19.57
2022-08-25T06:17:55.725Z,19.81
2022-08-25T06:22:59.423Z,20.55
2022-08-25T06:28:01.071Z,20.54
2022-08-25T06:33:02.716Z,20.32
2022-08-25T06:38:04.445Z,20.49
2022-08-25T06:43:08.925Z,20.64
2022-08-25T06:48:11.212Z,20.70
2022-08-25T06:53:13.277Z,20.99
2022-08-25T06:58:14.846Z,20.90
2022-08-25T07:03:16.598Z,20.94
2022-08-25T07:08:19.319Z,21.09
2022-08-25T07:13:21.122Z,21.39
2022-08-25T07:18:22.831Z,21.49
2022-08-25T07:23:25.843Z,21.65
2022-08-25T07:28:27.495Z,21.88
2022-08-25T07:33:29.097Z,22.02
2022-08-25T07:38:31.241Z,22.07
2022-08-25T07:43:32.941Z,22.32
2022-08-25T07:48:34.519Z,22.30
2022-08-25T07:53:37.690Z,22.29
2022-08-25T07:58:40.833Z,22.82
2022-08-25T08:03:50.960Z,22.92
2022-08-25T08:08:54.612Z,23.08
2022-08-25T08:13:59.955Z,23.35
2022-08-25T08:19:02.985Z,23.84
2022-08-25T08:24:14.891Z,23.94
2022-08-25T08:29:27.843Z,24.12
2022-08-25T08:34:30.517Z,24.40
2022-08-25T08:39:32.238Z,24.66
2022-08-25T08:44:46.651Z,24.80
2022-08-25T08:50:23.965Z,24.89
2022-08-25T08:55:39.066Z,24.88
2022-08-25T09:00:51.849Z,25.27
2022-08-25T09:05:59.215Z,25.58
2022-08-25T09:11:30.487Z,25.36
2022-08-25T09:16:57.531Z,25.67
2022-08-25T09:22:35.587Z,25.90
2022-08-25T09:28:08.454Z,25.52
2022-08-25T09:33:12.171Z,26.46
2022-08-25T09:38:13.871Z,26.76
2022-08-25T09:43:37.109Z,26.45
2022-08-25T09:48:56.435Z,26.40
2022-08-25T09:54:10.749Z,26.47
2022-08-25T09:59:19.018Z,26.85
2022-08-25T10:04:28.801Z,27.62
2022-08-25T10:09:34.572Z,28.53
2022-08-25T10:14:44.676Z,28.98
2022-08-25T10:19:46.350Z,29.35
2022-08-25T10:24:51.314Z,29.64
2022-08-25T10:30:17.989Z,29.14
2022-08-25T10:35:28.075Z,29.52
2022-08-25T10:40:47.655Z,29.64
2022-08-25T10:45:56.631Z,29.10
2022-08-25T10:51:28.446Z,28.65
2022-08-25T10:56:36.920Z,29.13
2022-08-25T11:02:06.579Z,28.90
2022-08-25T11:07:32.573Z,28.41
2022-08-25T11:12:45.935Z,28.98
2022-08-25T11:18:03.735Z,28.20
2022-08-25T11:23:21.373Z,27.83
2022-08-25T11:28:28.429Z,28.14
2022-08-25T11:33:31.183Z,28.41
2022-08-25T11:38:59.864Z,28.97
2022-08-25T11:44:30.147Z,28.83
2022-08-25T11:49:51.265Z,29.11
2022-08-25T11:54:52.952Z,30.01
2022-08-25T11:59:57.131Z,29.93
2022-08-25T12:04:58.953Z,28.81
2022-08-25T12:10:03.471Z,29.18
2022-08-25T12:15:26.975Z,29.35
2022-08-25T12:20:53.562Z,29.37
2022-08-25T12:25:58.796Z,29.03
2022-08-25T12:31:09.032Z,29.21
2022-08-25T12:36:25.930Z,29.66
2022-08-25T12:41:31.545Z,29.94
2022-08-25T12:46:39.442Z,29.91
2022-08-25T12:51:59.999Z,29.58
2022-08-25T12:57:08.066Z,29.02
2022-08-25T13:02:52.230Z,29.23
2022-08-25T13:08:34.023Z,29.58
2022-08-25T13:14:04.228Z,29.35
2022-08-25T13:19:07.063Z,29.38
2022-08-25T13:24:26.932Z,29.70
2022-08-25T13:29:35.829Z,29.82
2022-08-25T13:34:43.448Z,29.60
2022-08-25T13:39:56.334Z,29.20
2022-08-25T13:44:58.527Z,29.11
2022-08-25T13:50:20.777Z,29.39
2022-08-25T13:55:51.236Z,29.56
2022-08-25T14:01:23.133Z,29.61
2022-08-25T14:06:29.426Z,29.24
2022-08-25T14:11:33.311Z,28.71
2022-08-25T14:17:16.516Z,28.53
2022-08-25T14:22:28.325Z,28.78
2022-08-25T14:27:29.939Z,28.82
2022-08-25T14:32:31.680Z,28.83
2022-08-25T14:37:34.826Z,28.74
2022-08-25T14:42:36.399Z,28.43
2022-08-25T14:47:38.613Z,28.43
2022-08-25T14:52:42.094Z,28.74
2022-08-25T14:57:44.363Z,28.53
2022-08-25T15:02:49.401Z,28.55
2022-08-25T15:08:12.173Z,28.62
2022-08-25T15:13:14.719Z,28.43
2022-08-25T15:18:17.232Z,28.61
2022-08-25T15:23:19.306Z,28.45
2022-08-25T15:28:22.467Z,28.56
2022-08-25T15:33:24.583Z,28.31
2022-08-25T15:38:26.162Z,27.96
2022-08-25T15:43:28.045Z,27.75
2022-08-25T15:48:29.706Z,27.67
2022-08-25T15:53:31.425Z,27.66
2022-08-25T15:58:35.335Z,27.45
2022-08-25T16:03:37.219Z,27.54
2022-08-25T16:08:39.449Z,27.39
2022-08-25T16:13:44.268Z,27.35
2022-08-25T16:18:46.371Z,27.61
2022-08-25T16:23:48.838Z,27.49
2022-08-25T16:28:50.771Z,27.32
2022-08-25T16:33:56.042Z,27.41
2022-08-25T16:39:01.408Z,27.22
2022-08-25T16:44:07.754Z,27.23
2022-08-25T16:49:14.507Z,27.06
2022-08-25T16:54:35.975Z,26.85
2022-08-25T16:59:37.696Z,26.77
2022-08-25T17:04:40.697Z,26.60
2022-08-25T17:09:42.485Z,26.63
2022-08-25T17:14:44.069Z,26.45
2022-08-25T17:19:48.032Z,26.26
2022-08-25T17:24:59.440Z,26.23
2022-08-25T17:30:03.071Z,26.27
2022-08-25T17:35:06.055Z,26.06
2022-08-25T17:40:09.688Z,26.00
2022-08-25T17:45:12.736Z,25.77
2022-08-25T17:50:15.056Z,25.75
2022-08-25T17:55:23.295Z,25.64
2022-08-25T18:00:25.348Z,25.52
2022-08-25T18:05:27.917Z,25.34
2022-08-25T18:10:29.972Z,25.01
2022-08-25T18:15:33.915Z,25.05
2022-08-25T18:20:35.583Z,24.93
2022-08-25T18:25:37.389Z,24.89
2022-08-25T18:30:43.820Z,24.80
2022-08-25T18:35:46.430Z,24.61
2022-08-25T18:40:56.206Z,24.75
2022-08-25T18:46:03.601Z,24.55
2022-08-25T18:51:07.480Z,24.53
2022-08-25T18:56:12.088Z,24.37
2022-08-25T19:01:18.194Z,24.33
2022-08-25T19:06:20.645Z,24.28
2022-08-25T19:11:23.206Z,24.18
2022-08-25T19:16:41.214Z,24.07
2022-08-25T19:21:45.484Z,24.10
2022-08-25T19:26:54.478Z,23.87
2022-08-25T19:31:57.341Z,23.70
2022-08-25T19:37:04.645Z,23.58
2022-08-25T19:42:07.451Z,23.53
2022-08-25T19:47:09.337Z,23.47
2022-08-25T19:52:17.170Z,23.39
2022-08-25T19:57:28.266Z,23.18
2022-08-25T20:02:44.296Z,23.10
2022-08-25T20:07:45.949Z,23.05
2022-08-25T20:12:47.865Z,22.88
2022-08-25T20:17:49.672Z,22.79
2022-08-25T20:22:51.574Z,22.76
2022-08-25T20:27:56.462Z,22.74
2022-08-25T20:32:58.294Z,22.76
2022-08-25T20:38:00.965Z,22.70
2022-08-25T20:43:04.356Z,22.70
2022-08-25T20:48:06.154Z,22.70
2022-08-25T20:53:10.189Z,22.41
2022-08-25T20:58:16.074Z,22.30
2022-08-25T21:03:17.769Z,22.25
2022-08-25T21:08:21.702Z,22.28
2022-08-25T21:13:25.749Z,22.15
2022-08-25T21:18:31.531Z,22.37
2022-08-25T21:23:34.468Z,22.25
2022-08-25T21:28:36.187Z,21.96
2022-08-25T21:33:38.867Z,21.81
2022-08-25T21:38:40.853Z,22.03
2022-08-25T21:43:45.506Z,21.97
2022-08-25T21:48:50.166Z,21.63
2022-08-25T21:54:08.811Z,21.74
2022-08-25T21:59:14.192Z,21.87
2022-08-25T22:04:15.915Z,21.59
2022-08-25T22:09:18.035Z,21.44
2022-08-25T22:14:20.615Z,21.49
2022-08-25T22:19:23.122Z,21.75
2022-08-25T22:24:28.467Z,21.71
2022-08-25T22:29:30.972Z,21.47
2022-08-25T22:34:34.455Z,21.31
2022-08-25T22:39:36.194Z,21.26
2022-08-25T22:44:42.575Z,21.25
2022-08-25T22:49:44.528Z,21.12
2022-08-25T22:54:46.980Z,21.09
2022-08-25T22:59:48.598Z,21.11
2022-08-25T23:04:51.255Z,21.01
2022-08-25T23:10:03.061Z,20.92
2022-08-25T23:15:08.783Z,20.84
2022-08-25T23:20:29.182Z,20.88
2022-08-25T23:25:32.758Z,20.92
2022-08-25T23:30:35.139Z,20.68
2022-08-25T23:35:44.406Z,20.65
2022-08-25T23:40:46.605Z,20.61
2022-08-25T23:45:49.512Z,20.66
2022-08-25T23:50:54.121Z,20.89
2022-08-25T23:55:57.396Z,20.75
